Parnell, Iowa
Current Conditions -  °F | °C
As of 7:52 PM on Saturday 25 Oct 2014 (Local Time) from KIOW Reporting Station
Clear Clear  
Wind Chill: 50°   Ceiling: Unl
Heat Index: 50°   Visibility: 10mi
Dew Point: 41°   Wind: 6mph
Humidity: 71%   Direction: 300°WNW
Pressure: 30.05"   Gusts: NA
Location:  41.58°N, 92°W
Report Text: KIOW 260052Z AUTO 30005KT 10SM CLR 10/05 A3005 RMK AO2 SLP177 T01000050 $
Loading
Personal Weather Stations






























Interactive Weather Map
Tropical Storm Tracking
New forecast layout! Learn more

10-Day Weather Forecast

Advertisements
Track Severe Weather on mobile